sensor_id;sensor_type;location;lat;lon;timestamp;P1;durP1;ratioP1;P2;durP2;ratioP2
45909;SDS011;31622;55.416;37.840;2023-05-07T00:01:28;3.45;;;1.55;;
45909;SDS011;31622;55.416;37.840;2023-05-07T00:03:53;3.10;;;1.60;;
45909;SDS011;31622;55.416;37.840;2023-05-07T00:06:19;2.95;;;1.65;;
45909;SDS011;31622;55.416;37.840;2023-05-07T00:08:45;2.45;;;1.70;;
45909;SDS011;31622;55.416;37.840;2023-05-07T00:11:11;3.13;;;1.77;;
45909;SDS011;31622;55.416;37.840;2023-05-07T00:13:36;2.10;;;1.60;;
45909;SDS011;31622;55.416;37.840;2023-05-07T00:16:02;2.25;;;1.30;;
45909;SDS011;31622;55.416;37.840;2023-05-07T00:18:28;5.20;;;1.50;;
45909;SDS011;31622;55.416;37.840;2023-05-07T00:20:54;2.63;;;1.60;;
45909;SDS011;31622;55.416;37.840;2023-05-07T00:23:20;2.28;;;1.33;;
45909;SDS011;31622;55.416;37.840;2023-05-07T00:25:45;2.72;;;1.70;;
45909;SDS011;31622;55.416;37.840;2023-05-07T00:28:11;2.78;;;1.73;;
45909;SDS011;31622;55.416;37.840;2023-05-07T00:30:37;3.25;;;1.60;;
45909;SDS011;31622;55.416;37.840;2023-05-07T00:33:03;2.65;;;1.48;;
45909;SDS011;31622;55.416;37.840;2023-05-07T00:35:29;3.08;;;1.67;;
45909;SDS011;31622;55.416;37.840;2023-05-07T00:37:55;2.45;;;1.50;;
45909;SDS011;31622;55.416;37.840;2023-05-07T00:40:21;3.45;;;1.95;;
45909;SDS011;31622;55.416;37.840;2023-05-07T00:42:47;3.00;;;1.75;;
45909;SDS011;31622;55.416;37.840;2023-05-07T00:45:14;3.13;;;1.80;;
45909;SDS011;31622;55.416;37.840;2023-05-07T00:47:40;2.85;;;1.55;;
45909;SDS011;31622;55.416;37.840;2023-05-07T00:50:07;2.78;;;1.80;;
45909;SDS011;31622;55.416;37.840;2023-05-07T00:52:36;3.47;;;1.58;;
45909;SDS011;31622;55.416;37.840;2023-05-07T00:55:04;4.78;;;1.63;;
45909;SDS011;31622;55.416;37.840;2023-05-07T00:57:37;3.13;;;1.65;;
45909;SDS011;31622;55.416;37.840;2023-05-07T01:00:05;3.60;;;1.80;;
45909;SDS011;31622;55.416;37.840;2023-05-07T01:02:32;2.97;;;1.67;;
45909;SDS011;31622;55.416;37.840;2023-05-07T01:04:58;2.60;;;1.75;;
45909;SDS011;31622;55.416;37.840;2023-05-07T01:07:26;2.72;;;1.80;;
45909;SDS011;31622;55.416;37.840;2023-05-07T01:09:52;3.13;;;1.85;;
45909;SDS011;31622;55.416;37.840;2023-05-07T01:12:19;4.45;;;2.10;;
45909;SDS011;31622;55.416;37.840;2023-05-07T01:14:45;2.78;;;1.60;;
45909;SDS011;31622;55.416;37.840;2023-05-07T01:17:10;2.33;;;1.52;;
45909;SDS011;31622;55.416;37.840;2023-05-07T01:19:36;3.35;;;1.90;;
45909;SDS011;31622;55.416;37.840;2023-05-07T01:22:04;3.17;;;1.90;;
45909;SDS011;31622;55.416;37.840;2023-05-07T01:24:42;2.40;;;1.67;;
45909;SDS011;31622;55.416;37.840;2023-05-07T01:27:08;2.40;;;1.67;;
45909;SDS011;31622;55.416;37.840;2023-05-07T01:29:35;2.88;;;1.75;;
45909;SDS011;31622;55.416;37.840;2023-05-07T01:32:01;2.53;;;1.55;;
45909;SDS011;31622;55.416;37.840;2023-05-07T01:34:28;2.78;;;1.85;;
45909;SDS011;31622;55.416;37.840;2023-05-07T01:36:56;2.10;;;1.60;;
45909;SDS011;31622;55.416;37.840;2023-05-07T01:39:24;3.33;;;1.90;;
45909;SDS011;31622;55.416;37.840;2023-05-07T01:41:52;2.65;;;1.52;;
45909;SDS011;31622;55.416;37.840;2023-05-07T01:44:21;4.03;;;1.70;;
45909;SDS011;31622;55.416;37.840;2023-05-07T01:46:46;2.95;;;1.92;;
45909;SDS011;31622;55.416;37.840;2023-05-07T01:49:13;2.42;;;1.48;;
45909;SDS011;31622;55.416;37.840;2023-05-07T01:51:38;2.50;;;1.63;;
45909;SDS011;31622;55.416;37.840;2023-05-07T01:54:05;3.58;;;1.80;;
45909;SDS011;31622;55.416;37.840;2023-05-07T01:56:32;2.70;;;1.90;;
45909;SDS011;31622;55.416;37.840;2023-05-07T01:58:58;2.90;;;1.77;;
45909;SDS011;31622;55.416;37.840;2023-05-07T02:01:23;2.25;;;1.58;;
45909;SDS011;31622;55.416;37.840;2023-05-07T02:03:49;3.88;;;1.63;;
45909;SDS011;31622;55.416;37.840;2023-05-07T02:06:21;2.38;;;1.75;;
45909;SDS011;31622;55.416;37.840;2023-05-07T02:08:47;2.45;;;1.70;;
45909;SDS011;31622;55.416;37.840;2023-05-07T02:11:14;2.67;;;1.60;;
45909;SDS011;31622;55.416;37.840;2023-05-07T02:13:39;2.08;;;1.67;;
45909;SDS011;31622;55.416;37.840;2023-05-07T02:16:05;2.63;;;1.70;;
45909;SDS011;31622;55.416;37.840;2023-05-07T02:18:32;4.90;;;1.63;;
45909;SDS011;31622;55.416;37.840;2023-05-07T02:20:57;3.00;;;1.73;;
45909;SDS011;31622;55.416;37.840;2023-05-07T02:23:23;3.28;;;1.70;;
45909;SDS011;31622;55.416;37.840;2023-05-07T02:25:50;2.70;;;1.70;;
45909;SDS011;31622;55.416;37.840;2023-05-07T02:28:16;2.67;;;1.50;;
45909;SDS011;31622;55.416;37.840;2023-05-07T02:31:00;2.65;;;1.60;;
45909;SDS011;31622;55.416;37.840;2023-05-07T02:33:28;2.40;;;1.50;;
45909;SDS011;31622;55.416;37.840;2023-05-07T02:35:55;3.97;;;1.80;;
45909;SDS011;31622;55.416;37.840;2023-05-07T02:38:21;3.53;;;1.83;;
45909;SDS011;31622;55.416;37.840;2023-05-07T02:40:47;2.53;;;1.85;;
45909;SDS011;31622;55.416;37.840;2023-05-07T02:43:13;2.38;;;1.60;;
45909;SDS011;31622;55.416;37.840;2023-05-07T02:45:42;3.38;;;1.80;;
45909;SDS011;31622;55.416;37.840;2023-05-07T02:48:08;2.60;;;1.50;;
45909;SDS011;31622;55.416;37.840;2023-05-07T02:50:34;2.55;;;1.73;;
45909;SDS011;31622;55.416;37.840;2023-05-07T02:53:00;2.60;;;1.58;;
45909;SDS011;31622;55.416;37.840;2023-05-07T02:55:28;2.28;;;1.52;;
45909;SDS011;31622;55.416;37.840;2023-05-07T02:57:54;2.28;;;1.40;;
45909;SDS011;31622;55.416;37.840;2023-05-07T03:00:19;2.30;;;1.63;;
45909;SDS011;31622;55.416;37.840;2023-05-07T03:03:09;2.83;;;1.55;;
45909;SDS011;31622;55.416;37.840;2023-05-07T03:05:36;2.70;;;1.95;;
45909;SDS011;31622;55.416;37.840;2023-05-07T03:08:02;2.83;;;1.67;;
45909;SDS011;31622;55.416;37.840;2023-05-07T03:10:29;3.97;;;1.70;;
45909;SDS011;31622;55.416;37.840;2023-05-07T03:12:55;4.18;;;1.80;;
45909;SDS011;31622;55.416;37.840;2023-05-07T03:15:21;2.38;;;1.50;;
45909;SDS011;31622;55.416;37.840;2023-05-07T03:17:47;2.38;;;1.55;;
45909;SDS011;31622;55.416;37.840;2023-05-07T03:20:13;2.67;;;1.73;;
45909;SDS011;31622;55.416;37.840;2023-05-07T03:22:40;3.00;;;1.60;;
45909;SDS011;31622;55.416;37.840;2023-05-07T03:25:06;2.20;;;1.50;;
45909;SDS011;31622;55.416;37.840;2023-05-07T03:27:32;2.83;;;1.50;;
45909;SDS011;31622;55.416;37.840;2023-05-07T03:29:59;2.00;;;1.48;;
45909;SDS011;31622;55.416;37.840;2023-05-07T03:32:25;2.03;;;1.27;;
45909;SDS011;31622;55.416;37.840;2023-05-07T03:34:51;3.72;;;1.58;;
45909;SDS011;31622;55.416;37.840;2023-05-07T03:37:17;2.05;;;1.35;;
45909;SDS011;31622;55.416;37.840;2023-05-07T03:39:43;2.95;;;1.42;;
45909;SDS011;31622;55.416;37.840;2023-05-07T03:42:09;2.45;;;1.60;;
45909;SDS011;31622;55.416;37.840;2023-05-07T03:44:35;2.13;;;1.45;;
45909;SDS011;31622;55.416;37.840;2023-05-07T03:47:03;2.67;;;1.50;;
45909;SDS011;31622;55.416;37.840;2023-05-07T03:49:29;3.72;;;1.45;;
45909;SDS011;31622;55.416;37.840;2023-05-07T03:51:55;2.45;;;1.52;;
45909;SDS011;31622;55.416;37.840;2023-05-07T03:54:22;3.67;;;1.52;;
45909;SDS011;31622;55.416;37.840;2023-05-07T03:56:47;3.78;;;1.30;;
45909;SDS011;31622;55.416;37.840;2023-05-07T03:59:13;2.10;;;1.40;;
45909;SDS011;31622;55.416;37.840;2023-05-07T04:01:42;2.20;;;1.50;;
45909;SDS011;31622;55.416;37.840;2023-05-07T04:04:07;2.88;;;1.60;;
45909;SDS011;31622;55.416;37.840;2023-05-07T04:06:35;3.47;;;1.60;;
45909;SDS011;31622;55.416;37.840;2023-05-07T04:09:01;2.33;;;1.73;;
45909;SDS011;31622;55.416;37.840;2023-05-07T04:11:27;3.88;;;2.03;;
45909;SDS011;31622;55.416;37.840;2023-05-07T04:13:53;2.58;;;1.65;;
45909;SDS011;31622;55.416;37.840;2023-05-07T04:16:22;3.08;;;1.70;;
45909;SDS011;31622;55.416;37.840;2023-05-07T04:18:47;2.97;;;1.80;;
45909;SDS011;31622;55.416;37.840;2023-05-07T04:21:14;2.17;;;1.67;;
45909;SDS011;31622;55.416;37.840;2023-05-07T04:23:41;2.78;;;1.80;;
45909;SDS011;31622;55.416;37.840;2023-05-07T04:26:09;2.58;;;1.67;;
45909;SDS011;31622;55.416;37.840;2023-05-07T04:28:39;3.03;;;1.90;;
45909;SDS011;31622;55.416;37.840;2023-05-07T04:31:06;4.50;;;2.05;;
45909;SDS011;31622;55.416;37.840;2023-05-07T04:33:34;2.55;;;1.83;;
45909;SDS011;31622;55.416;37.840;2023-05-07T04:36:03;2.38;;;1.50;;
45909;SDS011;31622;55.416;37.840;2023-05-07T04:41:04;3.00;;;1.83;;
45909;SDS011;31622;55.416;37.840;2023-05-07T04:43:37;2.88;;;1.80;;
45909;SDS011;31622;55.416;37.840;2023-05-07T04:46:03;2.55;;;1.83;;
45909;SDS011;31622;55.416;37.840;2023-05-07T04:48:29;2.13;;;1.60;;
45909;SDS011;31622;55.416;37.840;2023-05-07T04:50:57;3.65;;;1.70;;
45909;SDS011;31622;55.416;37.840;2023-05-07T04:53:22;2.78;;;1.98;;
45909;SDS011;31622;55.416;37.840;2023-05-07T04:55:54;5.97;;;2.17;;
45909;SDS011;31622;55.416;37.840;2023-05-07T04:58:22;4.03;;;1.98;;
45909;SDS011;31622;55.416;37.840;2023-05-07T05:00:49;6.05;;;2.45;;
45909;SDS011;31622;55.416;37.840;2023-05-07T05:03:15;5.50;;;2.42;;
45909;SDS011;31622;55.416;37.840;2023-05-07T05:05:41;4.47;;;2.88;;
45909;SDS011;31622;55.416;37.840;2023-05-07T05:08:06;6.63;;;2.92;;
45909;SDS011;31622;55.416;37.840;2023-05-07T05:10:35;6.72;;;3.10;;
45909;SDS011;31622;55.416;37.840;2023-05-07T05:13:01;6.68;;;3.40;;
45909;SDS011;31622;55.416;37.840;2023-05-07T05:15:27;7.32;;;3.55;;
45909;SDS011;31622;55.416;37.840;2023-05-07T05:17:53;6.45;;;3.03;;
45909;SDS011;31622;55.416;37.840;2023-05-07T05:20:19;7.25;;;3.45;;
45909;SDS011;31622;55.416;37.840;2023-05-07T05:22:47;7.57;;;3.50;;
45909;SDS011;31622;55.416;37.840;2023-05-07T05:25:13;8.85;;;3.47;;
45909;SDS011;31622;55.416;37.840;2023-05-07T05:27:38;5.97;;;3.33;;
45909;SDS011;31622;55.416;37.840;2023-05-07T05:30:05;8.05;;;3.50;;
45909;SDS011;31622;55.416;37.840;2023-05-07T05:32:32;7.05;;;3.50;;
45909;SDS011;31622;55.416;37.840;2023-05-07T05:34:59;8.70;;;3.72;;
45909;SDS011;31622;55.416;37.840;2023-05-07T05:37:25;9.32;;;4.25;;
45909;SDS011;31622;55.416;37.840;2023-05-07T05:39:51;9.38;;;4.35;;
45909;SDS011;31622;55.416;37.840;2023-05-07T05:42:18;6.70;;;3.25;;
45909;SDS011;31622;55.416;37.840;2023-05-07T05:44:44;6.78;;;3.60;;
45909;SDS011;31622;55.416;37.840;2023-05-07T05:47:10;9.25;;;3.30;;
45909;SDS011;31622;55.416;37.840;2023-05-07T05:49:36;6.32;;;3.45;;
45909;SDS011;31622;55.416;37.840;2023-05-07T05:52:04;16.42;;;3.95;;
45909;SDS011;31622;55.416;37.840;2023-05-07T05:54:29;7.35;;;3.88;;
45909;SDS011;31622;55.416;37.840;2023-05-07T05:56:55;8.43;;;4.10;;
45909;SDS011;31622;55.416;37.840;2023-05-07T05:59:23;8.82;;;4.22;;
45909;SDS011;31622;55.416;37.840;2023-05-07T06:01:49;9.68;;;3.88;;
45909;SDS011;31622;55.416;37.840;2023-05-07T06:04:14;13.35;;;4.57;;
45909;SDS011;31622;55.416;37.840;2023-05-07T06:06:40;16.75;;;4.45;;
45909;SDS011;31622;55.416;37.840;2023-05-07T06:09:06;14.90;;;4.65;;
45909;SDS011;31622;55.416;37.840;2023-05-07T06:11:39;15.60;;;4.80;;
45909;SDS011;31622;55.416;37.840;2023-05-07T06:14:06;12.38;;;5.80;;
45909;SDS011;31622;55.416;37.840;2023-05-07T06:16:33;19.33;;;7.10;;
45909;SDS011;31622;55.416;37.840;2023-05-07T06:18:59;18.55;;;8.55;;
45909;SDS011;31622;55.416;37.840;2023-05-07T06:21:24;15.65;;;8.82;;
45909;SDS011;31622;55.416;37.840;2023-05-07T06:23:50;26.90;;;10.35;;
45909;SDS011;31622;55.416;37.840;2023-05-07T06:26:17;23.50;;;10.13;;
45909;SDS011;31622;55.416;37.840;2023-05-07T06:28:46;18.40;;;11.23;;
45909;SDS011;31622;55.416;37.840;2023-05-07T06:31:17;19.70;;;10.88;;
45909;SDS011;31622;55.416;37.840;2023-05-07T06:33:59;25.73;;;11.13;;
45909;SDS011;31622;55.416;37.840;2023-05-07T06:36:31;23.92;;;12.18;;
45909;SDS011;31622;55.416;37.840;2023-05-07T06:38:59;27.42;;;13.45;;
45909;SDS011;31622;55.416;37.840;2023-05-07T06:41:25;24.85;;;13.60;;
45909;SDS011;31622;55.416;37.840;2023-05-07T06:43:51;21.70;;;13.00;;
45909;SDS011;31622;55.416;37.840;2023-05-07T06:46:31;18.58;;;12.80;;
45909;SDS011;31622;55.416;37.840;2023-05-07T06:48:57;19.83;;;12.57;;
45909;SDS011;31622;55.416;37.840;2023-05-07T06:51:24;19.67;;;12.18;;
45909;SDS011;31622;55.416;37.840;2023-05-07T06:53:50;20.65;;;11.27;;
45909;SDS011;31622;55.416;37.840;2023-05-07T06:56:16;21.13;;;11.77;;
45909;SDS011;31622;55.416;37.840;2023-05-07T06:58:42;15.30;;;10.25;;
45909;SDS011;31622;55.416;37.840;2023-05-07T07:01:08;18.10;;;10.90;;
45909;SDS011;31622;55.416;37.840;2023-05-07T07:03:36;18.83;;;10.15;;
45909;SDS011;31622;55.416;37.840;2023-05-07T07:06:01;16.00;;;9.52;;
45909;SDS011;31622;55.416;37.840;2023-05-07T07:08:29;15.05;;;8.82;;
45909;SDS011;31622;55.416;37.840;2023-05-07T07:10:55;14.25;;;8.82;;
45909;SDS011;31622;55.416;37.840;2023-05-07T07:13:21;14.50;;;9.18;;
45909;SDS011;31622;55.416;37.840;2023-05-07T07:15:47;17.48;;;9.25;;
45909;SDS011;31622;55.416;37.840;2023-05-07T07:18:12;23.20;;;10.05;;
45909;SDS011;31622;55.416;37.840;2023-05-07T07:20:38;24.08;;;9.88;;
45909;SDS011;31622;55.416;37.840;2023-05-07T07:23:06;30.98;;;10.98;;
45909;SDS011;31622;55.416;37.840;2023-05-07T07:25:32;30.40;;;11.20;;
45909;SDS011;31622;55.416;37.840;2023-05-07T07:27:59;32.45;;;11.63;;
45909;SDS011;31622;55.416;37.840;2023-05-07T07:30:26;32.05;;;12.65;;
45909;SDS011;31622;55.416;37.840;2023-05-07T07:32:52;44.95;;;13.15;;
45909;SDS011;31622;55.416;37.840;2023-05-07T07:35:19;38.95;;;14.27;;
45909;SDS011;31622;55.416;37.840;2023-05-07T07:37:46;54.60;;;15.45;;
45909;SDS011;31622;55.416;37.840;2023-05-07T07:40:15;53.60;;;16.30;;
45909;SDS011;31622;55.416;37.840;2023-05-07T07:42:41;50.35;;;16.17;;
45909;SDS011;31622;55.416;37.840;2023-05-07T07:45:07;44.78;;;15.52;;
45909;SDS011;31622;55.416;37.840;2023-05-07T07:47:38;48.33;;;15.43;;
45909;SDS011;31622;55.416;37.840;2023-05-07T07:50:07;47.88;;;14.85;;
45909;SDS011;31622;55.416;37.840;2023-05-07T07:52:34;46.50;;;15.27;;
45909;SDS011;31622;55.416;37.840;2023-05-07T07:55:00;42.35;;;13.27;;
45909;SDS011;31622;55.416;37.840;2023-05-07T07:57:27;42.33;;;14.18;;
45909;SDS011;31622;55.416;37.840;2023-05-07T07:59:53;44.17;;;13.30;;
45909;SDS011;31622;55.416;37.840;2023-05-07T08:02:19;42.35;;;13.73;;
45909;SDS011;31622;55.416;37.840;2023-05-07T08:04:46;34.70;;;11.93;;
45909;SDS011;31622;55.416;37.840;2023-05-07T08:07:12;36.75;;;12.07;;
45909;SDS011;31622;55.416;37.840;2023-05-07T08:09:41;40.00;;;11.88;;
45909;SDS011;31622;55.416;37.840;2023-05-07T08:12:08;33.63;;;11.02;;
45909;SDS011;31622;55.416;37.840;2023-05-07T08:14:34;30.45;;;10.02;;
45909;SDS011;31622;55.416;37.840;2023-05-07T08:17:02;36.95;;;11.38;;
45909;SDS011;31622;55.416;37.840;2023-05-07T08:19:29;61.10;;;18.38;;
45909;SDS011;31622;55.416;37.840;2023-05-07T08:21:55;91.95;;;25.13;;
45909;SDS011;31622;55.416;37.840;2023-05-07T08:24:22;90.70;;;25.98;;
45909;SDS011;31622;55.416;37.840;2023-05-07T08:26:48;87.97;;;26.55;;
45909;SDS011;31622;55.416;37.840;2023-05-07T08:29:15;87.75;;;25.92;;
45909;SDS011;31622;55.416;37.840;2023-05-07T08:31:41;78.10;;;22.92;;
45909;SDS011;31622;55.416;37.840;2023-05-07T08:34:07;79.38;;;22.45;;
45909;SDS011;31622;55.416;37.840;2023-05-07T08:36:36;66.95;;;21.58;;
45909;SDS011;31622;55.416;37.840;2023-05-07T08:39:02;72.43;;;21.88;;
45909;SDS011;31622;55.416;37.840;2023-05-07T08:41:29;69.68;;;21.20;;
45909;SDS011;31622;55.416;37.840;2023-05-07T08:43:55;66.22;;;20.02;;
45909;SDS011;31622;55.416;37.840;2023-05-07T08:46:23;56.45;;;18.63;;
45909;SDS011;31622;55.416;37.840;2023-05-07T08:48:54;56.25;;;17.85;;
45909;SDS011;31622;55.416;37.840;2023-05-07T08:51:20;52.15;;;16.00;;
45909;SDS011;31622;55.416;37.840;2023-05-07T08:53:47;47.00;;;15.70;;
45909;SDS011;31622;55.416;37.840;2023-05-07T08:56:19;46.95;;;16.08;;
45909;SDS011;31622;55.416;37.840;2023-05-07T08:58:47;38.55;;;13.48;;
45909;SDS011;31622;55.416;37.840;2023-05-07T09:01:13;45.47;;;13.30;;
45909;SDS011;31622;55.416;37.840;2023-05-07T09:03:41;36.88;;;12.20;;
45909;SDS011;31622;55.416;37.840;2023-05-07T09:06:09;31.98;;;11.88;;
45909;SDS011;31622;55.416;37.840;2023-05-07T09:08:35;32.25;;;11.57;;
45909;SDS011;31622;55.416;37.840;2023-05-07T09:11:03;31.95;;;10.65;;
45909;SDS011;31622;55.416;37.840;2023-05-07T09:13:29;34.42;;;10.48;;
45909;SDS011;31622;55.416;37.840;2023-05-07T09:15:58;23.20;;;9.30;;
45909;SDS011;31622;55.416;37.840;2023-05-07T09:18:32;27.08;;;9.80;;
45909;SDS011;31622;55.416;37.840;2023-05-07T09:20:58;24.95;;;9.70;;
45909;SDS011;31622;55.416;37.840;2023-05-07T09:23:24;21.55;;;8.30;;
45909;SDS011;31622;55.416;37.840;2023-05-07T09:25:49;23.55;;;8.48;;
45909;SDS011;31622;55.416;37.840;2023-05-07T09:28:24;19.98;;;7.82;;
45909;SDS011;31622;55.416;37.840;2023-05-07T09:30:50;22.38;;;7.63;;
45909;SDS011;31622;55.416;37.840;2023-05-07T09:33:16;18.90;;;6.75;;
45909;SDS011;31622;55.416;37.840;2023-05-07T09:35:47;26.30;;;7.75;;
45909;SDS011;31622;55.416;37.840;2023-05-07T09:38:17;17.13;;;6.60;;
45909;SDS011;31622;55.416;37.840;2023-05-07T09:40:46;18.23;;;6.32;;
45909;SDS011;31622;55.416;37.840;2023-05-07T09:43:14;16.73;;;6.13;;
45909;SDS011;31622;55.416;37.840;2023-05-07T09:45:50;14.07;;;5.80;;
45909;SDS011;31622;55.416;37.840;2023-05-07T09:48:18;13.27;;;5.65;;
45909;SDS011;31622;55.416;37.840;2023-05-07T09:50:48;12.43;;;5.15;;
45909;SDS011;31622;55.416;37.840;2023-05-07T09:53:17;14.85;;;5.43;;
45909;SDS011;31622;55.416;37.840;2023-05-07T09:55:43;14.93;;;5.80;;
45909;SDS011;31622;55.416;37.840;2023-05-07T09:58:11;10.27;;;4.75;;
45909;SDS011;31622;55.416;37.840;2023-05-07T10:00:39;10.93;;;4.40;;
45909;SDS011;31622;55.416;37.840;2023-05-07T10:03:09;10.60;;;4.57;;
45909;SDS011;31622;55.416;37.840;2023-05-07T10:05:47;11.52;;;4.70;;
45909;SDS011;31622;55.416;37.840;2023-05-07T10:08:14;11.05;;;4.18;;
45909;SDS011;31622;55.416;37.840;2023-05-07T10:10:43;11.38;;;4.22;;
45909;SDS011;31622;55.416;37.840;2023-05-07T10:13:14;9.40;;;4.65;;
45909;SDS011;31622;55.416;37.840;2023-05-07T10:15:44;10.18;;;3.90;;
45909;SDS011;31622;55.416;37.840;2023-05-07T10:18:10;8.20;;;3.47;;
45909;SDS011;31622;55.416;37.840;2023-05-07T10:20:37;7.00;;;3.88;;
45909;SDS011;31622;55.416;37.840;2023-05-07T10:23:06;8.80;;;3.95;;
45909;SDS011;31622;55.416;37.840;2023-05-07T10:25:39;7.07;;;3.38;;
45909;SDS011;31622;55.416;37.840;2023-05-07T10:28:14;6.63;;;3.30;;
45909;SDS011;31622;55.416;37.840;2023-05-07T10:33:44;5.97;;;3.38;;
45909;SDS011;31622;55.416;37.840;2023-05-07T10:36:12;6.57;;;3.80;;
45909;SDS011;31622;55.416;37.840;2023-05-07T10:38:38;6.75;;;2.90;;
45909;SDS011;31622;55.416;37.840;2023-05-07T10:41:06;7.50;;;3.00;;
45909;SDS011;31622;55.416;37.840;2023-05-07T10:43:44;6.03;;;2.85;;
45909;SDS011;31622;55.416;37.840;2023-05-07T10:46:18;6.93;;;3.08;;
45909;SDS011;31622;55.416;37.840;2023-05-07T10:49:11;6.57;;;2.97;;
45909;SDS011;31622;55.416;37.840;2023-05-07T10:52:19;8.50;;;3.25;;
45909;SDS011;31622;55.416;37.840;2023-05-07T10:57:51;6.13;;;2.97;;
45909;SDS011;31622;55.416;37.840;2023-05-07T11:05:30;11.95;;;3.67;;
45909;SDS011;31622;55.416;37.840;2023-05-07T11:08:09;9.15;;;3.25;;
45909;SDS011;31622;55.416;37.840;2023-05-07T11:13:49;8.00;;;2.78;;
45909;SDS011;31622;55.416;37.840;2023-05-07T11:17:00;5.75;;;2.65;;
45909;SDS011;31622;55.416;37.840;2023-05-07T11:25:08;55.05;;;5.75;;
45909;SDS011;31622;55.416;37.840;2023-05-07T11:27:35;26.98;;;4.32;;
45909;SDS011;31622;55.416;37.840;2023-05-07T11:30:01;32.13;;;4.10;;
45909;SDS011;31622;55.416;37.840;2023-05-07T11:32:29;18.23;;;3.08;;
45909;SDS011;31622;55.416;37.840;2023-05-07T11:34:56;21.25;;;3.38;;
45909;SDS011;31622;55.416;37.840;2023-05-07T11:37:24;14.48;;;3.13;;
45909;SDS011;31622;55.416;37.840;2023-05-07T11:40:06;11.73;;;3.03;;
45909;SDS011;31622;55.416;37.840;2023-05-07T11:42:33;12.57;;;2.70;;
45909;SDS011;31622;55.416;37.840;2023-05-07T11:45:00;8.27;;;2.72;;
45909;SDS011;31622;55.416;37.840;2023-05-07T11:47:26;6.03;;;2.22;;
45909;SDS011;31622;55.416;37.840;2023-05-07T11:49:55;6.10;;;2.10;;
45909;SDS011;31622;55.416;37.840;2023-05-07T11:52:22;7.43;;;2.20;;
45909;SDS011;31622;55.416;37.840;2023-05-07T11:54:55;5.25;;;2.00;;
45909;SDS011;31622;55.416;37.840;2023-05-07T11:57:22;8.70;;;2.03;;
45909;SDS011;31622;55.416;37.840;2023-05-07T11:59:52;5.18;;;1.88;;
45909;SDS011;31622;55.416;37.840;2023-05-07T12:02:24;5.03;;;1.70;;
45909;SDS011;31622;55.416;37.840;2023-05-07T12:04:51;4.07;;;1.63;;
45909;SDS011;31622;55.416;37.840;2023-05-07T12:07:17;3.38;;;1.70;;
45909;SDS011;31622;55.416;37.840;2023-05-07T12:09:46;6.18;;;1.90;;
45909;SDS011;31622;55.416;37.840;2023-05-07T12:12:12;5.20;;;1.70;;
45909;SDS011;31622;55.416;37.840;2023-05-07T12:14:41;3.50;;;1.70;;
45909;SDS011;31622;55.416;37.840;2023-05-07T12:17:08;4.10;;;1.52;;
45909;SDS011;31622;55.416;37.840;2023-05-07T12:19:35;3.30;;;1.40;;
45909;SDS011;31622;55.416;37.840;2023-05-07T12:22:04;2.88;;;1.20;;
45909;SDS011;31622;55.416;37.840;2023-05-07T12:27:25;4.88;;;1.50;;
45909;SDS011;31622;55.416;37.840;2023-05-07T12:29:51;5.53;;;1.80;;
45909;SDS011;31622;55.416;37.840;2023-05-07T12:32:17;3.75;;;1.80;;
45909;SDS011;31622;55.416;37.840;2023-05-07T12:34:45;8.50;;;2.08;;
45909;SDS011;31622;55.416;37.840;2023-05-07T12:37:11;4.53;;;1.50;;
45909;SDS011;31622;55.416;37.840;2023-05-07T12:40:02;5.80;;;1.85;;
45909;SDS011;31622;55.416;37.840;2023-05-07T12:42:33;5.85;;;1.77;;
45909;SDS011;31622;55.416;37.840;2023-05-07T12:45:07;3.28;;;1.33;;
45909;SDS011;31622;55.416;37.840;2023-05-07T12:47:33;5.78;;;1.67;;
45909;SDS011;31622;55.416;37.840;2023-05-07T12:49:59;4.35;;;1.95;;
45909;SDS011;31622;55.416;37.840;2023-05-07T12:52:25;4.18;;;2.05;;
45909;SDS011;31622;55.416;37.840;2023-05-07T12:54:51;2.97;;;1.92;;
45909;SDS011;31622;55.416;37.840;2023-05-07T12:57:18;8.32;;;2.65;;
45909;SDS011;31622;55.416;37.840;2023-05-07T12:59:44;9.82;;;2.08;;
45909;SDS011;31622;55.416;37.840;2023-05-07T13:02:10;5.93;;;1.98;;
45909;SDS011;31622;55.416;37.840;2023-05-07T13:04:37;11.95;;;2.40;;
45909;SDS011;31622;55.416;37.840;2023-05-07T13:07:03;12.48;;;2.97;;
45909;SDS011;31622;55.416;37.840;2023-05-07T13:09:29;6.63;;;2.10;;
45909;SDS011;31622;55.416;37.840;2023-05-07T13:11:56;4.05;;;1.90;;
45909;SDS011;31622;55.416;37.840;2023-05-07T13:14:25;6.68;;;2.10;;
45909;SDS011;31622;55.416;37.840;2023-05-07T13:16:50;7.07;;;2.10;;
45909;SDS011;31622;55.416;37.840;2023-05-07T13:19:16;38.05;;;3.78;;
45909;SDS011;31622;55.416;37.840;2023-05-07T13:21:42;14.80;;;2.67;;
45909;SDS011;31622;55.416;37.840;2023-05-07T13:24:08;9.60;;;2.20;;
45909;SDS011;31622;55.416;37.840;2023-05-07T13:26:34;10.23;;;2.15;;
45909;SDS011;31622;55.416;37.840;2023-05-07T13:29:00;5.30;;;1.80;;
45909;SDS011;31622;55.416;37.840;2023-05-07T13:31:25;8.98;;;2.28;;
45909;SDS011;31622;55.416;37.840;2023-05-07T13:33:51;7.28;;;1.77;;
45909;SDS011;31622;55.416;37.840;2023-05-07T13:36:17;6.78;;;2.08;;
45909;SDS011;31622;55.416;37.840;2023-05-07T13:38:43;5.88;;;1.70;;
45909;SDS011;31622;55.416;37.840;2023-05-07T13:41:09;6.78;;;1.67;;
45909;SDS011;31622;55.416;37.840;2023-05-07T13:43:35;3.25;;;1.65;;
45909;SDS011;31622;55.416;37.840;2023-05-07T13:46:00;5.32;;;1.98;;
45909;SDS011;31622;55.416;37.840;2023-05-07T13:48:26;5.35;;;1.80;;
45909;SDS011;31622;55.416;37.840;2023-05-07T13:50:53;2.58;;;1.65;;
45909;SDS011;31622;55.416;37.840;2023-05-07T13:53:19;3.80;;;1.40;;
45909;SDS011;31622;55.416;37.840;2023-05-07T13:55:45;4.65;;;1.60;;
45909;SDS011;31622;55.416;37.840;2023-05-07T13:58:11;2.50;;;1.42;;
45909;SDS011;31622;55.416;37.840;2023-05-07T14:00:36;4.10;;;1.42;;
45909;SDS011;31622;55.416;37.840;2023-05-07T14:03:03;2.67;;;1.20;;
45909;SDS011;31622;55.416;37.840;2023-05-07T14:05:30;2.47;;;1.30;;
45909;SDS011;31622;55.416;37.840;2023-05-07T14:07:58;5.45;;;1.52;;
45909;SDS011;31622;55.416;37.840;2023-05-07T14:10:24;5.13;;;1.88;;
45909;SDS011;31622;55.416;37.840;2023-05-07T14:12:51;4.25;;;1.40;;
45909;SDS011;31622;55.416;37.840;2023-05-07T14:15:17;2.40;;;1.70;;
45909;SDS011;31622;55.416;37.840;2023-05-07T14:17:43;2.97;;;1.30;;
45909;SDS011;31622;55.416;37.840;2023-05-07T14:20:09;3.75;;;1.40;;
45909;SDS011;31622;55.416;37.840;2023-05-07T14:22:36;4.60;;;1.80;;
45909;SDS011;31622;55.416;37.840;2023-05-07T14:25:02;2.13;;;1.33;;
45909;SDS011;31622;55.416;37.840;2023-05-07T14:27:28;3.67;;;1.75;;
45909;SDS011;31622;55.416;37.840;2023-05-07T14:29:54;3.92;;;1.80;;
45909;SDS011;31622;55.416;37.840;2023-05-07T14:32:20;4.70;;;1.35;;
45909;SDS011;31622;55.416;37.840;2023-05-07T14:34:46;2.50;;;1.48;;
45909;SDS011;31622;55.416;37.840;2023-05-07T14:37:12;2.38;;;1.70;;
45909;SDS011;31622;55.416;37.840;2023-05-07T14:39:38;3.65;;;1.50;;
45909;SDS011;31622;55.416;37.840;2023-05-07T14:42:04;2.88;;;1.42;;
45909;SDS011;31622;55.416;37.840;2023-05-07T14:44:30;2.28;;;1.17;;
45909;SDS011;31622;55.416;37.840;2023-05-07T14:46:56;3.20;;;1.50;;
45909;SDS011;31622;55.416;37.840;2023-05-07T14:49:22;2.45;;;1.60;;
45909;SDS011;31622;55.416;37.840;2023-05-07T14:51:48;3.05;;;1.42;;
45909;SDS011;31622;55.416;37.840;2023-05-07T14:54:14;2.63;;;1.40;;
45909;SDS011;31622;55.416;37.840;2023-05-07T14:56:40;3.40;;;1.35;;